createdAt,value
2023-02-19T00:00:01.382Z,4.32
2023-02-19T00:15:02.390Z,4.7
2023-02-19T00:30:01.962Z,3.78
2023-02-19T00:45:02.590Z,4.5
2023-02-19T01:00:01.704Z,4.5
2023-02-19T01:15:01.335Z,3.95
2023-02-19T01:30:01.740Z,3.59
2023-02-19T01:45:02.597Z,3.26
2023-02-19T02:00:02.188Z,3.5
2023-02-19T02:15:02.661Z,3.31
2023-02-19T02:30:02.106Z,3.1
2023-02-19T02:45:01.407Z,3.3
2023-02-19T03:00:01.818Z,2.73
2023-02-19T03:15:02.758Z,2.55
2023-02-19T03:30:02.693Z,2.64
2023-02-19T03:45:02.646Z,2.64
2023-02-19T04:00:01.944Z,2.64
2023-02-19T04:15:02.471Z,2.64
2023-02-19T04:30:02.157Z,2.64
2023-02-19T04:45:02.494Z,2.64
2023-02-19T05:00:02.886Z,2.64
2023-02-19T05:15:01.449Z,2.64
2023-02-19T05:30:02.141Z,5.71
2023-02-19T05:45:02.877Z,6.3
2023-02-19T06:00:01.516Z,6.3
2023-02-19T06:15:01.399Z,6.3
2023-02-19T06:30:01.812Z,6.3
2023-02-19T06:45:02.492Z,6.3
2023-02-19T07:00:01.494Z,6.3
2023-02-19T07:45:01.918Z,6.3
2023-02-19T08:00:03.202Z,6.3
2023-02-19T08:15:01.482Z,6.3
2023-02-19T08:30:01.902Z,6.3
2023-02-19T08:45:02.179Z,6.3
2023-02-19T09:00:01.546Z,6.3
2023-02-19T09:15:02.221Z,6.3
2023-02-19T09:30:01.566Z,6.3
2023-02-19T09:45:01.931Z,6.3
2023-02-19T10:00:03.137Z,6.3
2023-02-19T10:15:02.146Z,6.3
2023-02-19T10:30:02.195Z,6.3
2023-02-19T10:45:02.669Z,6.3
2023-02-19T11:00:03.213Z,6.3
2023-02-19T11:15:02.065Z,6.3
2023-02-19T11:30:02.173Z,6.3
2023-02-19T11:45:03.042Z,6.3
2023-02-19T12:00:03.211Z,6.3
2023-02-19T12:15:02.190Z,12.6
2023-02-19T12:30:02.740Z,12.6
2023-02-19T12:45:01.417Z,12.6
2023-02-19T13:00:01.785Z,12.6
2023-02-19T13:15:02.322Z,12.6
2023-02-19T13:30:01.707Z,81.88
2023-02-19T13:45:02.012Z,81.88
2023-02-19T14:00:02.022Z,81.88
2023-02-19T14:15:02.586Z,81.88
2023-02-19T14:30:02.624Z,10.61
2023-02-19T14:45:01.909Z,10.61
2023-02-19T15:00:02.355Z,10.94
2023-02-19T15:15:02.673Z,10.94
2023-02-19T15:30:01.747Z,10.6
2023-02-19T15:45:02.635Z,10.43
2023-02-19T16:00:02.444Z,10.43
2023-02-19T16:15:01.927Z,10.23
2023-02-19T16:30:02.411Z,10.23
2023-02-19T16:45:01.626Z,10.23
2023-02-19T17:00:02.622Z,9.51
2023-02-19T17:15:03.092Z,9.51
2023-02-19T17:30:01.557Z,9.51
2023-02-19T17:45:01.991Z,9.51
2023-02-19T18:00:02.549Z,9.51
2023-02-19T18:15:03.182Z,9.51
2023-02-19T18:30:01.676Z,9.51
2023-02-19T18:45:02.178Z,9.51
2023-02-19T19:00:02.719Z,9.51
2023-02-19T19:15:01.837Z,9.51
2023-02-19T19:30:02.226Z,9.51
2023-02-19T19:45:02.122Z,9.51
2023-02-19T20:00:02.643Z,9.51
2023-02-19T20:15:01.520Z,9.51
2023-02-19T20:30:01.864Z,9.51
2023-02-19T20:45:02.240Z,9.51
2023-02-19T21:00:02.604Z,9.51
2023-02-19T21:15:01.644Z,9.51
2023-02-19T21:30:02.035Z,9.51
2023-02-19T21:45:02.107Z,9.51
2023-02-19T22:00:02.612Z,9.51
2023-02-19T22:15:01.618Z,9.51
2023-02-19T22:30:02.063Z,9.51
2023-02-19T22:45:02.345Z,9.51
2023-02-19T23:00:02.650Z,9.51
2023-02-19T23:15:01.384Z,9.51
2023-02-19T23:30:01.780Z,9.51
2023-02-19T23:45:02.080Z,9.51
